Flight Track Log - Related Links

Times and Time Zones

All times are in EDT time to prevent confusion due to time zone crossing. See the UAL1208 flight status page for this flight to view local times or setup timezone preferences in your user account.

Time Position Orientation Groundspeed Altitude Reporting Facility
EDT Latitude Longitude Course Direction KTS MPH feet Rate Location/Type
Sun 02:13:17 AM 37.6500 -122.3500 44° Northeast 191 220 1,900  Level Northern Cal TRACON
Sun 02:14:11 AM 37.7167 -122.3167 22° Northeast 245 282 3,400 1,947 Climbing Northern Cal TRACON
Sun 02:15:11 AM 37.7833 -122.3667 329° Northwest 266 306 5,600 2,300 Climbing Northern Cal TRACON
Sun 02:16:11 AM 37.8500 -122.3667 360° North 286 329 8,000 1,967 Climbing Northern Cal TRACON
Sun 02:17:00 AM 38.1091 -122.0738 53° Northeast  Level FlightAware Approximate
Sun 02:17:13 AM 37.8933 -122.3022 50° Northeast 288 331 9,600  Level Oakland Center
Sun 02:18:00 AM 38.1944 -121.9570 44° Northeast  Level FlightAware Approximate
Sun 02:18:13 AM 37.9656 -122.2056 47° Northeast 323 372 11,200  Level Oakland Center
Sun 02:19:13 AM 38.0353 -122.1089 48° Northeast 370 426 12,400 1,636 Climbing Oakland Center
Sun 02:20:14 AM 38.1108 -122.0078 46° Northeast 393 452 14,500 1,983 Climbing Oakland Center
Sun 02:21:14 AM 38.1872 -121.9031 47° Northeast 404 465 16,400 1,800 Climbing Oakland Center
Sun 02:22:14 AM 38.2661 -121.7956 47° Northeast 413 475 18,100 1,686 Climbing Oakland Center
Sun 02:23:15 AM 38.3464 -121.6844 47° Northeast 425 489 19,800 1,686 Climbing Oakland Center
Sun 02:24:15 AM 38.4278 -121.5711 47° Northeast 433 498 21,500 1,550 Climbing Oakland Center
Sun 02:25:15 AM 38.5044 -121.4481 51° Northeast 440 506 22,900 1,350 Climbing Oakland Center
Sun 02:26:15 AM 38.5806 -121.3161 54° Northeast 463 533 24,200 1,289 Climbing Oakland Center
Sun 02:27:16 AM 38.6575 -121.1856 53° Northeast 463 533 25,500 1,190 Climbing Oakland Center
Sun 02:28:16 AM 38.7342 -121.0519 54° Northeast 470 541 26,600 1,350 Climbing Oakland Center
Sun 02:29:16 AM 38.8131 -120.9147 54° Northeast 474 545 28,200 1,537 Climbing Oakland Center
Sun 02:30:17 AM 38.8903 -120.7797 54° Northeast 472 543 29,700 1,388 Climbing Oakland Center
Sun 02:31:17 AM 38.9692 -120.6461 53° Northeast 470 541 31,000 1,300 Climbing Oakland Center
Sun 02:32:17 AM 39.0453 -120.5108 54° Northeast 468 539 32,300 992 Climbing Oakland Center
Sun 02:33:18 AM 39.1222 -120.3783 53° Northeast 465 535 33,000 347 Climbing Oakland Center
Sun 02:34:18 AM 39.1994 -120.2406 54° Northeast 471 542 33,000  Level Oakland Center
Sun 02:35:18 AM 39.2731 -120.1133 53° Northeast 481 554 33,000  Level Oakland Center
Sun 02:36:19 AM 39.3539 -119.9719 53° Northeast 487 560 33,000  Level Oakland Center
Sun 02:37:19 AM 39.4331 -119.8317 54° Northeast 483 556 33,000  Level Oakland Center
Sun 02:38:19 AM 39.5122 -119.6903 54° Northeast 484 557 33,000  Level Oakland Center
Sun 02:39:20 AM 39.5914 -119.5492 54° Northeast 483 556 33,000  Level Oakland Center
Sun 02:40:20 AM 39.6692 -119.4075 54° Northeast 480 552 33,000  Level Oakland Center
Sun 02:41:20 AM 39.7481 -119.2656 54° Northeast 482 555 33,000  Level Oakland Center
Sun 02:42:20 AM 39.8267 -119.1228 54° Northeast 482 555 33,000  Level Oakland Center
Sun 02:43:21 AM 39.9053 -118.9800 54° Northeast 482 555 33,000  Level Oakland Center
Sun 02:44:21 AM 39.9839 -118.8364 54° Northeast 483 556 33,000  Level Oakland Center
Sun 02:45:21 AM 40.0619 -118.6939 54° Northeast 481 554 33,000  Level Oakland Center
Sun 02:46:22 AM 40.1336 -118.5436 58° Northeast 485 558 33,000  Level Oakland Center
Sun 02:47:22 AM 40.1800 -118.3781 70° East 483 556 33,000  Level Oakland Center
Sun 02:48:13 AM 40.2233 -118.2186 70° East 486 559 33,000  Level Salt Lake Center
Sun 02:49:13 AM 40.2661 -118.0592 71° East 485 558 33,000  Level Salt Lake Center
Sun 02:50:14 AM 40.2983 -117.8950 76° East 488 562 33,000  Level Salt Lake Center
Sun 02:51:14 AM 40.3250 -117.6992 80° East 489 563 33,000  Level Salt Lake Center
Sun 02:52:14 AM 40.3522 -117.5339 78° East 486 559 33,000  Level Salt Lake Center
Sun 02:53:15 AM 40.3792 -117.3667 78° East 488 562 33,000  Level Salt Lake Center
Sun 02:54:15 AM 40.4097 -117.1722 78° East 487 560 33,000  Level Salt Lake Center
Sun 02:55:15 AM 40.4361 -117.0044 78° East 487 560 33,000  Level Salt Lake Center
Sun 02:56:16 AM 40.4617 -116.8242 79° East 492 566 33,000  Level Salt Lake Center
Sun 02:57:16 AM 40.4856 -116.6581 79° East 487 560 33,000  Level Salt Lake Center
Sun 02:58:16 AM 40.5094 -116.4889 79° East 490 564 33,000  Level Salt Lake Center
Sun 02:59:17 AM 40.5364 -116.2928 80° East 489 563 33,000  Level Salt Lake Center
Sun 03:00:17 AM 40.5606 -116.1239 79° East 491 565 33,000  Level Salt Lake Center
Sun 03:01:17 AM 40.5839 -115.9556 80° East 490 564 33,000  Level Salt Lake Center
Sun 03:02:17 AM 40.6061 -115.7875 80° East 488 562 33,000  Level Salt Lake Center
Sun 03:03:18 AM 40.6294 -115.5883 81° East 492 566 33,000  Level Salt Lake Center
Sun 03:04:18 AM 40.6514 -115.4197 80° East 490 564 33,000  Level Salt Lake Center
Sun 03:05:18 AM 40.6742 -115.2503 80° East 492 566 33,000  Level Salt Lake Center
Sun 03:06:19 AM 40.6967 -115.0808 80° East 492 566 33,000  Level Salt Lake Center
Sun 03:07:19 AM 40.7236 -114.8817 80° East 493 567 33,000  Level Salt Lake Center
Sun 03:08:19 AM 40.7433 -114.7214 81° East 491 565 33,000  Level Salt Lake Center
Sun 03:09:20 AM 40.7653 -114.5428 81° East 493 567 33,000  Level Salt Lake Center
Sun 03:10:20 AM 40.7864 -114.3644 81° East 494 568 33,000  Level Salt Lake Center
Sun 03:11:20 AM 40.8086 -114.1867 81° East 493 567 33,000  Level Salt Lake Center
Sun 03:12:21 AM 40.8292 -114.0069 81° East 496 571 33,000  Level Salt Lake Center
Sun 03:13:21 AM 40.8497 -113.8286 81° East 494 568 33,000  Level Salt Lake Center
Sun 03:14:21 AM 40.8706 -113.6514 81° East 492 566 33,000  Level Salt Lake Center
Sun 03:15:22 AM 40.8906 -113.4731 82° East 491 565 33,000  Level Salt Lake Center
Sun 03:16:22 AM 40.9111 -113.2942 81° East 494 568 33,000  Level Salt Lake Center
Sun 03:17:22 AM 40.9333 -113.0772 82° East 497 572 33,000  Level Salt Lake Center
Sun 03:18:23 AM 40.9528 -112.8972 82° East 497 572 33,000  Level Salt Lake Center
Sun 03:19:23 AM 40.9719 -112.7169 82° East 498 573 33,000  Level Salt Lake Center
Sun 03:20:24 AM 40.9911 -112.5361 82° East 498 573 33,000  Level Salt Lake Center
Sun 03:21:24 AM 41.0097 -112.3542 82° East 498 573 33,000  Level Salt Lake Center
Sun 03:22:24 AM 41.0283 -112.1728 82° East 500 575 33,000  Level Salt Lake Center
Sun 03:23:25 AM 41.0464 -111.9922 82° East 495 570 33,000  Level Salt Lake Center
Sun 03:24:25 AM 41.0653 -111.8072 82° East 500 575 33,000  Level Salt Lake Center
Sun 03:25:25 AM 41.0806 -111.6500 83° East 498 573 33,000  Level Salt Lake Center
Sun 03:26:26 AM 41.0978 -111.4683 83° East 497 572 33,000  Level Salt Lake Center
Sun 03:27:26 AM 41.1147 -111.2872 83° East 496 571 33,000  Level Salt Lake Center
Sun 03:28:26 AM 41.1297 -111.1075 84° East 492 566 33,000  Level Salt Lake Center
Sun 03:29:26 AM 41.1472 -110.9211 83° East 496 571 33,000  Level Salt Lake Center
Sun 03:30:27 AM 41.1656 -110.7175 83° East 499 574 33,000  Level Salt Lake Center
Sun 03:31:27 AM 41.1803 -110.5436 84° East 496 571 33,000  Level Salt Lake Center
Sun 03:32:27 AM 41.1947 -110.3706 84° East 494 568 33,000  Level Salt Lake Center
Sun 03:33:28 AM 41.2122 -110.1681 83° East 493 567 33,000  Level Salt Lake Center
Sun 03:34:28 AM 41.2261 -109.9944 84° East 494 568 33,000  Level Salt Lake Center
Sun 03:35:28 AM 41.2397 -109.8217 84° East 494 568 33,000  Level Salt Lake Center
Sun 03:36:29 AM 41.2531 -109.6508 84° East 490 564 33,000  Level Salt Lake Center
Sun 03:37:29 AM 41.2686 -109.4514 84° East 488 562 33,000  Level Salt Lake Center
Sun 03:38:29 AM 41.2811 -109.2814 84° East 489 563 33,000  Level Salt Lake Center
Sun 03:39:29 AM 41.2964 -109.0836 84° East 491 565 33,000  Level Salt Lake Center
Sun 03:40:30 AM 41.3092 -108.9142 84° East 490 564 33,000  Level Salt Lake Center
Sun 03:41:31 AM 41.3214 -108.7433 85° East 490 564 33,000  Level Salt Lake Center
Sun 03:42:30 AM 41.3353 -108.5436 85° East 489 563 33,000  Level Salt Lake Center
Sun 03:43:31 AM 41.3472 -108.3694 85° East 493 567 33,000  Level Salt Lake Center
Sun 03:44:31 AM 41.3589 -108.1958 85° East 493 567 33,000  Level Salt Lake Center
Sun 03:45:37 AM 41.3708 -107.9922 85° East 491 565 33,000  Level Denver Center
Sun 03:46:38 AM 41.3817 -107.8200 85° East 489 563 33,000  Level Denver Center
Sun 03:47:38 AM 41.3942 -107.6186 85° East 490 564 33,000  Level Denver Center
Sun 03:48:38 AM 41.4047 -107.4461 85° East 490 564 33,000  Level Denver Center
Sun 03:49:39 AM 41.4156 -107.2714 85° East 495 570 33,000  Level Denver Center
Sun 03:50:39 AM 41.4258 -107.0669 86° East 495 570 33,000  Level Denver Center
Sun 03:51:39 AM 41.4369 -106.8942 85° East 493 567 33,000  Level Denver Center
Sun 03:52:40 AM 41.4447 -106.7194 87° East 494 568 33,000  Level Denver Center
Sun 03:53:40 AM 41.4567 -106.5172 85° East 492 566 33,000  Level Denver Center
Sun 03:54:40 AM 41.4644 -106.3406 87° East 490 564 33,000  Level Denver Center
Sun 03:55:41 AM 41.4728 -106.1675 86° East 490 564 33,000  Level Denver Center
Sun 03:56:41 AM 41.4803 -105.9922 87° East 494 568 33,000  Level Denver Center
Sun 03:57:41 AM 41.4892 -105.7914 87° East 489 563 33,000  Level Denver Center
Sun 03:58:42 AM 41.4975 -105.6178 86° East 490 564 33,000  Level Denver Center
Sun 03:59:42 AM 41.5036 -105.4744 87° East 489 563 33,000  Level Denver Center
Sun 04:00:42 AM 41.5114 -105.2719 87° East 491 565 33,000  Level Denver Center
Sun 04:01:43 AM 41.5183 -105.0967 87° East 492 566 33,000  Level Denver Center
Sun 04:02:43 AM 41.5258 -104.8919 87° East 494 568 33,000  Level Denver Center
Sun 04:03:43 AM 41.5317 -104.7203 87° East 490 564 33,000  Level Denver Center
Sun 04:04:44 AM 41.5389 -104.5192 87° East 487 560 33,000  Level Denver Center
Sun 04:05:44 AM 41.5439 -104.3447 88° East 492 566 33,000  Level Denver Center
Sun 04:06:44 AM 41.5494 -104.1719 87° East 489 563 33,000  Level Denver Center
Sun 04:07:45 AM 41.5556 -103.9697 88° East 490 564 33,000  Level Denver Center
Sun 04:08:45 AM 41.5594 -103.7989 88° East 485 558 33,000  Level Denver Center
Sun 04:09:45 AM 41.5647 -103.6242 88° East 489 563 33,000  Level Denver Center
Sun 04:10:46 AM 41.5692 -103.4231 88° East 488 562 33,000  Level Denver Center
Sun 04:11:46 AM 41.5733 -103.2492 88° East 491 565 33,000  Level Denver Center
Sun 04:12:46 AM 41.5767 -103.0761 88° East 489 563 33,000  Level Denver Center
Sun 04:13:47 AM 41.5808 -102.9022 88° East 490 564 33,000  Level Denver Center
Sun 04:14:47 AM 41.5842 -102.7003 89° East 489 563 33,000  Level Denver Center
Sun 04:15:47 AM 41.5864 -102.5375 89° East 489 563 33,000  Level Denver Center
Sun 04:16:48 AM 41.5892 -102.3336 89° East 492 566 33,000  Level Denver Center
Sun 04:17:48 AM 41.5925 -102.1603 88° East 490 564 33,000  Level Denver Center
Sun 04:18:48 AM 41.5944 -101.9842 89° East 493 567 33,000  Level Denver Center
Sun 04:19:49 AM 41.5969 -101.7811 89° East 490 564 33,000  Level Denver Center
Sun 04:20:49 AM 41.5981 -101.6061 89° East 491 565 33,000  Level Denver Center
Sun 04:21:49 AM 41.6003 -101.4317 89° East 491 565 33,000  Level Denver Center
Sun 04:22:50 AM 41.5994 -101.2597 90° East 485 558 33,000  Level Denver Center
Sun 04:23:50 AM 41.6017 -101.0567 89° East 488 562 33,000  Level Denver Center
Sun 04:24:50 AM 41.6008 -100.8836 90° East 486 559 33,000  Level Denver Center
Sun 04:25:51 AM 41.6006 -100.7108 90° East 485 558 33,000 298 Level Denver Center
Sun 04:26:51 AM 41.6014 -100.5386 90° East 483 556 33,600 1,000 Climbing Denver Center
Sun 04:27:51 AM 41.6008 -100.3383 90° East 481 554 35,000 700 Climbing Denver Center
Sun 04:28:51 AM 41.6000 -100.1692 90° East 477 549 35,000  Level Denver Center
Sun 04:29:52 AM 41.5992 -100.0014 90° East 472 543 35,000  Level Denver Center
Sun 04:31:04 AM 41.5981 -99.8331 90° East 472 543 35,000  Level Denver Center
Sun 04:32:04 AM 41.5961 -99.6189 91° East 477 549 35,000  Level Denver Center
Sun 04:33:05 AM 41.5939 -99.4419 91° East 476 548 35,000  Level Denver Center
Sun 04:34:05 AM 41.5922 -99.2625 91° East 479 551 35,000  Level Denver Center
Sun 04:34:48 AM 41.5911 -99.1192 91° East 479 551 35,000  Level Minneapolis Center
Sun 04:35:49 AM 41.5878 -98.9386 91° East 481 554 35,000  Level Minneapolis Center
Sun 04:36:49 AM 41.5850 -98.7589 91° East 481 554 35,000  Level Minneapolis Center
Sun 04:37:49 AM 41.5825 -98.5803 91° East 478 550 35,000  Level Minneapolis Center
Sun 04:38:49 AM 41.5781 -98.4011 92° East 478 550 35,000  Level Minneapolis Center
Sun 04:39:50 AM 41.5747 -98.2231 91° East 478 550 35,000  Level Minneapolis Center
Sun 04:40:50 AM 41.5714 -98.0733 92° East 479 551 35,000  Level Minneapolis Center
Sun 04:41:50 AM 41.5672 -97.8950 92° East 481 554 35,000  Level Minneapolis Center
Sun 04:42:50 AM 41.5622 -97.7167 92° East 482 555 35,000  Level Minneapolis Center
Sun 04:43:51 AM 41.5575 -97.5386 92° East 481 554 35,000  Level Minneapolis Center
Sun 04:44:51 AM 41.5525 -97.3608 92° East 480 552 35,000  Level Minneapolis Center
Sun 04:45:51 AM 41.5475 -97.1844 92° East 478 550 35,000  Level Minneapolis Center
Sun 04:46:52 AM 41.5419 -97.0436 93° East 475 547 35,000  Level Minneapolis Center
Sun 04:47:52 AM 41.5350 -96.7967 92° East 476 548 35,000  Level Minneapolis Center
Sun 04:48:52 AM 41.5294 -96.6217 92° East 473 544 35,000  Level Minneapolis Center
Sun 04:49:52 AM 41.5222 -96.4447 93° East 476 548 35,000  Level Minneapolis Center
Sun 04:50:53 AM 41.5144 -96.2711 93° East 479 551 35,000  Level Minneapolis Center
Sun 04:51:53 AM 41.5078 -96.0931 93° East 480 552 35,000  Level Minneapolis Center
Sun 04:52:53 AM 41.4997 -95.9161 93° East 480 552 35,000  Level Minneapolis Center
Sun 04:53:53 AM 41.4922 -95.7386 93° East 480 552 35,000  Level Minneapolis Center
Sun 04:54:54 AM 41.4856 -95.5808 93° East 480 552 35,000  Level Minneapolis Center
Sun 04:55:54 AM 41.4775 -95.4033 93° East 479 551 35,000  Level Minneapolis Center
Sun 04:56:54 AM 41.4703 -95.2258 93° East 479 551 35,000  Level Minneapolis Center
Sun 04:57:54 AM 41.4617 -95.0508 94° East 475 547 35,000  Level Minneapolis Center
Sun 04:58:55 AM 41.4519 -94.8736 94° East 476 548 35,000  Level Minneapolis Center
Sun 04:59:55 AM 41.4436 -94.6958 94° East 480 552 35,000  Level Minneapolis Center
Sun 05:00:55 AM 41.4344 -94.5181 94° East 480 552 35,000  Level Minneapolis Center
Sun 05:01:56 AM 41.4236 -94.3403 95° East 480 552 35,000  Level Minneapolis Center
Sun 05:02:56 AM 41.4131 -94.1639 95° East 482 555 35,000  Level Minneapolis Center
Sun 05:03:56 AM 41.4006 -93.9864 95° East 484 557 35,000  Level Minneapolis Center
Sun 05:04:56 AM 41.3903 -93.8092 94° East 483 556 35,000  Level Minneapolis Center
Sun 05:05:57 AM 41.3806 -93.6319 94° East 483 556 35,000  Level Minneapolis Center
Sun 05:06:57 AM 41.3692 -93.4558 95° East 482 555 35,000  Level Minneapolis Center
Sun 05:07:57 AM 41.3583 -93.2797 95° East 481 554 35,000  Level Minneapolis Center
Sun 05:08:57 AM 41.3472 -93.1006 95° East 483 556 35,000  Level Minneapolis Center
Sun 05:09:57 AM 41.3361 -92.9228 95° East 484 557 35,000  Level Minneapolis Center
Sun 05:10:58 AM 41.3236 -92.7447 95° East 485 558 35,000  Level Minneapolis Center
Sun 05:11:46 AM 41.3108 -92.5664 95° East 483 556 35,000  Level Chicago Center
Sun 05:12:47 AM 41.2986 -92.3908 95° East 481 554 35,000  Level Chicago Center
Sun 05:13:47 AM 41.2869 -92.2253 95° East 477 549 35,000  Level Chicago Center
Sun 05:14:47 AM 41.2731 -92.0508 96° East 479 551 35,000  Level Chicago Center
Sun 05:15:47 AM 41.2600 -91.8753 96° East 482 555 35,000  Level Chicago Center
Sun 05:16:47 AM 41.2461 -91.7011 96° East 482 555 35,000  Level Chicago Center
Sun 05:17:48 AM 41.2331 -91.5406 96° East 478 550 35,000  Level Chicago Center
Sun 05:18:48 AM 41.2194 -91.3678 96° East 472 543 35,000  Level Chicago Center
Sun 05:19:48 AM 41.2047 -91.1947 96° East 473 544 35,000  Level Chicago Center
Sun 05:20:48 AM 41.1906 -91.0231 96° East 467 537 35,000  Level Chicago Center
Sun 05:21:48 AM 41.1753 -90.8503 97° East 471 542 35,000  Level Chicago Center
Sun 05:22:49 AM 41.1614 -90.6778 96° East 471 542 35,000  Level Chicago Center
Sun 05:23:49 AM 41.1458 -90.5067 97° East 468 539 35,000  Level Chicago Center
Sun 05:24:49 AM 41.1294 -90.3333 97° East 470 541 35,000  Level Chicago Center
Sun 05:25:49 AM 41.1144 -90.1611 97° East 468 539 35,000  Level Chicago Center
Sun 05:26:49 AM 41.0978 -89.9875 97° East 471 542 35,000  Level Chicago Center
Sun 05:27:50 AM 41.0817 -89.8131 97° East 472 543 35,000  Level Chicago Center
Sun 05:28:50 AM 41.0653 -89.6381 97° East 474 545 35,000  Level Chicago Center
Sun 05:29:50 AM 41.0483 -89.4628 97° East 477 549 35,000  Level Chicago Center
Sun 05:30:50 AM 41.0300 -89.2917 98° East 469 540 35,000  Level Chicago Center
Sun 05:31:50 AM 41.0133 -89.1231 97° East 474 545 35,000  Level Chicago Center
Sun 05:32:51 AM 40.9942 -88.9431 98° East 476 548 35,000  Level Chicago Center
Sun 05:33:51 AM 40.9736 -88.7456 98° East 474 545 35,000  Level Chicago Center
Sun 05:34:51 AM 40.9553 -88.5750 98° East 472 543 35,000  Level Chicago Center
Sun 05:35:51 AM 40.9375 -88.4053 98° East 472 543 35,000  Level Chicago Center
Sun 05:36:51 AM 40.9197 -88.2350 98° East 474 545 35,000  Level Chicago Center
Sun 05:37:52 AM 40.8994 -88.0650 99° East 473 544 35,000  Level Chicago Center
Sun 05:38:52 AM 40.8817 -87.8942 98° East 475 547 35,000  Level Chicago Center
Sun 05:39:52 AM 40.8622 -87.7256 99° East 473 544 35,000  Level Chicago Center
Sun 05:40:52 AM 40.8428 -87.5550 99° East 475 547 35,000  Level Chicago Center
Sun 05:41:53 AM 40.8228 -87.3847 99° East 475 547 35,000  Level Chicago Center
Sun 05:42:53 AM 40.8011 -87.2153 100° East 472 543 35,000  Level Chicago Center
Sun 05:43:53 AM 40.7814 -87.0414 98° East 478 550 35,000  Level Chicago Center
Sun 05:44:53 AM 40.7600 -86.8694 99° East 481 554 35,000  Level Chicago Center
Sun 05:45:53 AM 40.7389 -86.6950 99° East 484 557 35,000  Level Chicago Center
Sun 05:46:54 AM 40.7164 -86.5197 100° East 487 560 35,000  Level Chicago Center
Sun 05:47:54 AM 40.6942 -86.3467 100° East 485 558 35,000  Level Chicago Center
Sun 05:48:54 AM 40.6725 -86.1661 99° East 478 550 35,000  Level Chicago Center
Sun 05:49:54 AM 40.6492 -85.9894 100° East 482 555 35,000  Level Chicago Center
Sun 05:50:54 AM 40.6264 -85.8128 100° East 484 557 35,000  Level Chicago Center
Sun 05:51:55 AM 40.6039 -85.6375 100° East 483 556 35,000  Level Chicago Center
Sun 05:52:55 AM 40.5794 -85.4614 100° East 485 558 35,000  Level Chicago Center
Sun 05:53:55 AM 40.5572 -85.2847 99° East 487 560 35,000  Level Chicago Center
Sun 05:54:55 AM 40.5319 -85.1089 101° East 486 559 35,000  Level Chicago Center
Sun 05:55:56 AM 40.5036 -84.9336 102° East 484 557 35,000  Level Chicago Center
Sun 05:56:56 AM 40.4747 -84.7572 102° East 488 562 35,000  Level Chicago Center
Sun 05:57:56 AM 40.4422 -84.5783 103° East 499 574 35,000  Level Chicago Center
Sun 05:58:56 AM 40.4147 -84.4058 102° East 490 564 35,000  Level Chicago Center
Sun 05:59:56 AM 40.3847 -84.2339 103° East 486 559 35,000  Level Chicago Center
Sun 06:00:57 AM 40.3561 -84.0606 102° East 488 562 35,000  Level Chicago Center
Sun 06:01:57 AM 40.3258 -83.8858 103° East 492 566 35,000  Level Chicago Center
Sun 06:02:57 AM 40.2942 -83.7092 103° East 497 572 35,000  Level Chicago Center
Sun 06:03:57 AM 40.2644 -83.5322 102° East 499 574 35,000  Level Chicago Center
Sun 06:05:05 AM 40.2325 -83.3500 103° East 498 573 35,000  Level Indianapolis Center
Sun 06:06:05 AM 40.2014 -83.1714 103° East 498 573 35,000  Level Indianapolis Center
Sun 06:07:05 AM 40.1697 -82.9919 103° East 497 572 35,000  Level Indianapolis Center
Sun 06:08:06 AM 40.1364 -82.8131 104° East 501 577 35,000  Level Indianapolis Center
Sun 06:09:06 AM 40.1039 -82.6336 103° East 501 577 35,000  Level Indianapolis Center
Sun 06:10:06 AM 40.0714 -82.4547 103° East 503 579 35,000  Level Indianapolis Center
Sun 06:11:06 AM 40.0364 -82.2736 104° East 509 586 35,000  Level Indianapolis Center
Sun 06:12:06 AM 40.0031 -82.0922 103° East 510 587 35,000  Level Indianapolis Center
Sun 06:13:07 AM 39.9692 -81.9117 104° East 510 587 35,000  Level Indianapolis Center
Sun 06:14:07 AM 39.9336 -81.7294 104° East 514 592 35,000  Level Indianapolis Center
Sun 06:15:07 AM 39.8983 -81.5483 104° East 513 590 35,000  Level Indianapolis Center
Sun 06:16:08 AM 39.8667 -81.3847 104° East 513 590 35,000  Level Indianapolis Center
Sun 06:17:08 AM 39.8322 -81.2031 104° East 515 593 35,000  Level Indianapolis Center
Sun 06:17:57 AM 39.8017 -81.0317 103° East 509 586 35,000  Level Cleveland Center
Sun 06:18:57 AM 39.7625 -80.8506 106° East 509 586 35,000  Level Cleveland Center
Sun 06:19:57 AM 39.7272 -80.6694 104° East 509 586 35,000  Level Cleveland Center
Sun 06:20:57 AM 39.6897 -80.4886 105° East 509 586 35,000  Level Cleveland Center
Sun 06:21:57 AM 39.6500 -80.3053 106° East 514 592 35,000 -350 Level Cleveland Center
Sun 06:22:57 AM 39.6161 -80.1222 103° East 514 592 34,300 -1,548 Descending Cleveland Center
Sun 06:24:01 AM 39.5750 -79.9372 106° East 511 588 31,800 -2,112 Descending Washington Center
Sun 06:25:02 AM 39.5397 -79.7547 104° East 500 575 29,900 -2,034 Descending Washington Center
Sun 06:25:59 AM 39.5100 -79.5833 103° East 495 570 27,800 -1,850 Descending Washington Center
Sun 06:27:02 AM 39.4822 -79.4178 102° East 482 555 26,200 -1,600 Descending Washington Center
Sun 06:27:59 AM 39.4536 -79.2603 103° East 464 534 24,600 -1,850 Descending Washington Center
Sun 06:29:02 AM 39.4244 -79.1219 105° East 451 519 22,500 -2,213 Descending Washington Center
Sun 06:30:01 AM 39.3994 -78.9783 103° East 425 489 20,100 -2,462 Descending Washington Center
Sun 06:30:59 AM 39.3739 -78.8456 104° East 406 467 17,700 -2,136 Descending Washington Center
Sun 06:31:59 AM 39.3522 -78.7158 102° East 382 440 15,900 -1,686 Descending Washington Center
Sun 06:33:00 AM 39.3306 -78.5914 103° East 362 417 14,300 -1,450 Descending Washington Center
Sun 06:33:59 AM 39.3064 -78.4697 104° East 357 411 13,000 -1,377 Descending Washington Center
Sun 06:35:02 AM 39.2797 -78.3586 107° East 344 396 11,500 -942 Descending Washington Center
Sun 06:36:00 AM 39.2339 -78.2686 123° Southeast 314 361 11,100 -872 Descending Washington Center
Sun 06:36:59 AM 39.1919 -78.1867 123° Southeast 294 338 9,800 -1,250 Descending Washington Center
Sun 06:38:00 AM 39.1497 -78.1075 125° Southeast 276 318 8,600 -1,180 Descending Washington Center
Sun 06:39:01 AM 39.1097 -78.0314 124° Southeast 265 305 7,400 -850 Descending Washington Center
Sun 06:40:00 AM 39.0714 -77.9578 124° Southeast 265 305 6,900 -353 Descending Washington Center
Sun 06:41:00 AM 39.0272 -77.8789 126° Southeast 260 299 6,700 -202 Descending Washington Center
Sun 06:41:59 AM 38.9950 -77.8136 122° Southeast 244 281 6,500 -202 Descending Washington Center
Sun 06:42:59 AM 38.9631 -77.7300 116° Southeast 239 275 6,300 -542 Descending Washington Center
Sun 06:44:56 AM 39.0000 -77.5833 72° East 274 315 4,900 -842 Descending Potomac TRACON
Sun 06:45:50 AM 39.0500 -77.5333 38° Northeast 234 269 3,900 -1,111 Descending Potomac TRACON

Login

Don't have an account? Register now (free) for customized features, flight alerts, and more!